NOZ4PL ENGM-EDDH
Flight info
| Callsign | NOZ4PL |
|---|---|
| Flight time | 1h 12m |
| Altitude | 33000 |
| Route | VIPPA DCT AAL DCT LUTUS/N0453F340 P615 ALS M852 ALASA/N0454F350 M852 EKERN/N0410F230 T905 BOGMU BOGMU5A |
| Aircraft | B38M/M-SDE1FGHILORVWXY/HB1 |
Departure
| Time | 2026-05-05 15:02 |
|---|---|
| Airport | Oslo-Gardermoen International Airport (ENGM) |
Arrival
| Time | 2026-05-05 16:15 |
|---|---|
| Airport | Hamburg Helmut Schmidt Airport (EDDH) |
| Time | Latitude | Longitude | Altitude | Speed | Heading |
|---|---|---|---|---|---|
| 2026-05-05 14:36 | 60.19720 | 11.10259 | 678 ft | 0 kts | 286° |
| 2026-05-05 14:52 | 60.19719 | 11.10265 | 679 ft | 3 kts | 286° |
| 2026-05-05 14:53 | 60.19711 | 11.10317 | 681 ft | 4 kts | 286° |
| 2026-05-05 14:53 | 60.19704 | 11.10367 | 683 ft | 4 kts | 286° |
| 2026-05-05 14:53 | 60.19696 | 11.10419 | 681 ft | 4 kts | 286° |
| 2026-05-05 14:53 | 60.19695 | 11.10429 | 682 ft | 1 kts | 286° |
| 2026-05-05 14:56 | 60.19703 | 11.10436 | 684 ft | 5 kts | 35° |
| 2026-05-05 14:57 | 60.19743 | 11.10604 | 684 ft | 17 kts | 68° |
| 2026-05-05 14:57 | 60.19823 | 11.10690 | 682 ft | 5 kts | 15° |
| 2026-05-05 14:57 | 60.19857 | 11.10813 | 684 ft | 36 kts | 97° |
| 2026-05-05 14:58 | 60.19790 | 11.11283 | 684 ft | 37 kts | 106° |
| 2026-05-05 14:58 | 60.19593 | 11.11383 | 685 ft | 29 kts | 196° |
| 2026-05-05 14:58 | 60.19466 | 11.11307 | 685 ft | 4 kts | 195° |
| 2026-05-05 14:58 | 60.19335 | 11.11233 | 686 ft | 36 kts | 195° |
| 2026-05-05 14:59 | 60.19081 | 11.11087 | 685 ft | 39 kts | 195° |
| 2026-05-05 14:59 | 60.18817 | 11.10935 | 680 ft | 40 kts | 196° |
| 2026-05-05 14:59 | 60.18549 | 11.10778 | 685 ft | 41 kts | 196° |
| 2026-05-05 14:59 | 60.18273 | 11.10620 | 681 ft | 42 kts | 196° |
| 2026-05-05 15:00 | 60.18137 | 11.10541 | 682 ft | 10 kts | 195° |
| 2026-05-05 15:00 | 60.18121 | 11.10532 | 682 ft | 0 kts | 196° |
| 2026-05-05 15:00 | 60.18119 | 11.10531 | 682 ft | 1 kts | 196° |
| 2026-05-05 15:00 | 60.18050 | 11.10491 | 682 ft | 23 kts | 196° |
| 2026-05-05 15:01 | 60.17848 | 11.10375 | 679 ft | 34 kts | 195° |
| 2026-05-05 15:01 | 60.17718 | 11.10516 | 680 ft | 22 kts | 105° |
| 2026-05-05 15:01 | 60.17708 | 11.10589 | 682 ft | 2 kts | 105° |
| 2026-05-05 15:01 | 60.17694 | 11.10742 | 682 ft | 28 kts | 82° |
| 2026-05-05 15:02 | 60.18017 | 11.11034 | 685 ft | 89 kts | 16° |
| 2026-05-05 15:02 | 60.18840 | 11.11513 | 693 ft | 154 kts | 14° |
| 2026-05-05 15:02 | 60.19926 | 11.12182 | 1214 ft | 170 kts | 13° |
| 2026-05-05 15:02 | 60.20966 | 11.12916 | 2200 ft | 171 kts | 21° |
| 2026-05-05 15:03 | 60.21920 | 11.14569 | 2939 ft | 196 kts | 52° |
| 2026-05-05 15:03 | 60.22374 | 11.17301 | 3608 ft | 223 kts | 83° |
| 2026-05-05 15:03 | 60.22437 | 11.20600 | 4338 ft | 246 kts | 86° |
| 2026-05-05 15:03 | 60.22511 | 11.24147 | 5265 ft | 258 kts | 85° |
| 2026-05-05 15:04 | 60.22430 | 11.27817 | 6122 ft | 275 kts | 103° |
| 2026-05-05 15:04 | 60.21493 | 11.31213 | 6354 ft | 284 kts | 140° |
| 2026-05-05 15:04 | 60.19792 | 11.33059 | 7436 ft | 278 kts | 166° |
| 2026-05-05 15:04 | 60.17903 | 11.34111 | 8455 ft | 284 kts | 167° |
| 2026-05-05 15:05 | 60.14078 | 11.33736 | 10456 ft | 285 kts | 210° |
| 2026-05-05 15:05 | 60.12284 | 11.31893 | 11008 ft | 303 kts | 212° |
| 2026-05-05 15:05 | 60.10355 | 11.29859 | 11521 ft | 323 kts | 212° |
| 2026-05-05 15:06 | 60.08328 | 11.27695 | 12162 ft | 337 kts | 212° |
| 2026-05-05 15:06 | 60.06237 | 11.25440 | 12982 ft | 343 kts | 213° |
| 2026-05-05 15:06 | 60.04128 | 11.23155 | 13874 ft | 347 kts | 213° |
| 2026-05-05 15:06 | 60.01992 | 11.20837 | 14716 ft | 349 kts | 214° |
| 2026-05-05 15:07 | 59.99862 | 11.18524 | 15619 ft | 349 kts | 214° |
| 2026-05-05 15:07 | 59.97726 | 11.16209 | 16498 ft | 347 kts | 216° |
| 2026-05-05 15:07 | 59.95634 | 11.13943 | 17454 ft | 346 kts | 216° |
| 2026-05-05 15:07 | 59.93515 | 11.11651 | 18236 ft | 348 kts | 217° |
| 2026-05-05 15:08 | 59.91382 | 11.09346 | 18938 ft | 349 kts | 217° |
| 2026-05-05 15:08 | 59.89246 | 11.07041 | 19609 ft | 350 kts | 218° |
| 2026-05-05 15:08 | 59.87101 | 11.04731 | 20265 ft | 351 kts | 218° |
| 2026-05-05 15:08 | 59.84947 | 11.02416 | 20954 ft | 352 kts | 219° |
| 2026-05-05 15:09 | 59.82788 | 11.00099 | 21638 ft | 353 kts | 219° |
| 2026-05-05 15:09 | 59.80619 | 10.97774 | 22272 ft | 355 kts | 220° |
| 2026-05-05 15:09 | 59.78442 | 10.95444 | 22914 ft | 356 kts | 220° |
| 2026-05-05 15:09 | 59.76256 | 10.93107 | 23529 ft | 358 kts | 221° |
| 2026-05-05 15:10 | 59.74057 | 10.90764 | 24004 ft | 360 kts | 220° |
| 2026-05-05 15:10 | 59.71842 | 10.88403 | 24355 ft | 364 kts | 220° |
| 2026-05-05 15:10 | 59.69596 | 10.86009 | 24721 ft | 369 kts | 219° |
| 2026-05-05 15:10 | 59.67315 | 10.83590 | 25151 ft | 373 kts | 219° |
| 2026-05-05 15:11 | 59.65023 | 10.81160 | 25591 ft | 375 kts | 219° |
| 2026-05-05 15:11 | 59.62716 | 10.78718 | 26033 ft | 378 kts | 218° |
| 2026-05-05 15:11 | 59.60381 | 10.76250 | 26459 ft | 381 kts | 218° |
| 2026-05-05 15:11 | 59.58036 | 10.73772 | 26885 ft | 384 kts | 218° |
| 2026-05-05 15:12 | 59.55670 | 10.71281 | 27296 ft | 387 kts | 217° |
| 2026-05-05 15:12 | 59.53079 | 10.69438 | 27750 ft | 408 kts | 202° |
| 2026-05-05 15:12 | 59.50311 | 10.68417 | 28236 ft | 410 kts | 202° |
| 2026-05-05 15:12 | 59.47497 | 10.67352 | 28573 ft | 414 kts | 201° |
| 2026-05-05 15:13 | 59.44659 | 10.66313 | 28872 ft | 417 kts | 201° |
| 2026-05-05 15:13 | 59.41794 | 10.65283 | 29298 ft | 418 kts | 200° |
| 2026-05-05 15:13 | 59.38926 | 10.64260 | 29684 ft | 421 kts | 200° |
| 2026-05-05 15:13 | 59.36024 | 10.63227 | 30029 ft | 423 kts | 200° |
| 2026-05-05 15:14 | 59.33118 | 10.62195 | 30331 ft | 426 kts | 200° |
| 2026-05-05 15:14 | 59.30191 | 10.61157 | 30690 ft | 428 kts | 200° |
| 2026-05-05 15:14 | 59.27255 | 10.60118 | 31011 ft | 430 kts | 199° |
| 2026-05-05 15:14 | 59.24321 | 10.59081 | 31399 ft | 429 kts | 199° |
| 2026-05-05 15:15 | 59.21377 | 10.58043 | 31794 ft | 429 kts | 199° |
| 2026-05-05 15:15 | 59.19437 | 10.57359 | 32041 ft | 429 kts | 199° |
| 2026-05-05 15:15 | 59.15543 | 10.55989 | 32488 ft | 429 kts | 199° |
| 2026-05-05 15:15 | 59.13563 | 10.55294 | 32723 ft | 429 kts | 199° |
| 2026-05-05 15:16 | 59.09659 | 10.53924 | 32977 ft | 433 kts | 199° |
| 2026-05-05 15:16 | 59.06806 | 10.52318 | 32911 ft | 420 kts | 213° |
| 2026-05-05 15:16 | 59.04404 | 10.49309 | 32931 ft | 406 kts | 228° |
| 2026-05-05 15:17 | 59.00825 | 10.41051 | 32926 ft | 399 kts | 238° |
| 2026-05-05 15:17 | 58.98113 | 10.33730 | 32927 ft | 398 kts | 239° |
| 2026-05-05 15:18 | 58.94483 | 10.25677 | 32926 ft | 411 kts | 220° |
| 2026-05-05 15:18 | 58.91870 | 10.23246 | 32937 ft | 428 kts | 205° |
| 2026-05-05 15:18 | 58.88881 | 10.22242 | 32911 ft | 444 kts | 192° |
| 2026-05-05 15:19 | 58.82706 | 10.21355 | 32939 ft | 445 kts | 193° |
| 2026-05-05 15:19 | 58.76537 | 10.20512 | 32938 ft | 445 kts | 193° |
| 2026-05-05 15:20 | 58.70350 | 10.19694 | 32933 ft | 445 kts | 193° |
| 2026-05-05 15:20 | 58.64162 | 10.18881 | 32934 ft | 445 kts | 193° |
| 2026-05-05 15:21 | 58.57977 | 10.18071 | 32938 ft | 446 kts | 193° |
| 2026-05-05 15:21 | 58.51778 | 10.17263 | 32944 ft | 446 kts | 192° |
| 2026-05-05 15:22 | 58.45578 | 10.16457 | 32943 ft | 446 kts | 192° |
| 2026-05-05 15:22 | 58.39421 | 10.15659 | 32946 ft | 446 kts | 192° |
| 2026-05-05 15:23 | 58.33227 | 10.14859 | 32943 ft | 446 kts | 192° |
| 2026-05-05 15:23 | 58.27034 | 10.14063 | 32946 ft | 446 kts | 192° |
| 2026-05-05 15:24 | 58.20838 | 10.13268 | 32951 ft | 446 kts | 192° |
| 2026-05-05 15:24 | 58.14638 | 10.12476 | 32955 ft | 446 kts | 192° |
| 2026-05-05 15:25 | 58.08432 | 10.11686 | 32946 ft | 446 kts | 192° |
| 2026-05-05 15:25 | 58.02233 | 10.10900 | 32959 ft | 448 kts | 192° |
| 2026-05-05 15:26 | 57.96015 | 10.10114 | 32958 ft | 447 kts | 192° |
| 2026-05-05 15:26 | 57.89802 | 10.09331 | 32960 ft | 447 kts | 192° |
| 2026-05-05 15:27 | 57.83637 | 10.08557 | 32959 ft | 447 kts | 192° |
| 2026-05-05 15:27 | 57.77429 | 10.07782 | 32921 ft | 447 kts | 192° |
| 2026-05-05 15:28 | 57.71225 | 10.07007 | 32958 ft | 446 kts | 192° |
| 2026-05-05 15:28 | 57.65021 | 10.06236 | 32967 ft | 447 kts | 192° |
| 2026-05-05 15:29 | 57.58824 | 10.05469 | 32961 ft | 446 kts | 192° |
| 2026-05-05 15:29 | 57.52629 | 10.04705 | 32938 ft | 446 kts | 192° |
| 2026-05-05 15:30 | 57.46425 | 10.03941 | 32958 ft | 447 kts | 191° |
| 2026-05-05 15:30 | 57.40206 | 10.03179 | 32963 ft | 447 kts | 191° |
| 2026-05-05 15:31 | 57.34030 | 10.02425 | 32963 ft | 447 kts | 191° |
| 2026-05-05 15:31 | 57.27816 | 10.01668 | 32963 ft | 447 kts | 191° |
| 2026-05-05 15:32 | 57.21597 | 10.00914 | 32950 ft | 448 kts | 191° |
| 2026-05-05 15:32 | 57.15370 | 10.00160 | 32963 ft | 448 kts | 191° |
| 2026-05-05 15:33 | 57.09127 | 9.99644 | 32966 ft | 452 kts | 186° |
| 2026-05-05 15:33 | 57.02876 | 9.99713 | 32963 ft | 452 kts | 187° |
| 2026-05-05 15:34 | 56.96586 | 9.99703 | 32925 ft | 452 kts | 187° |
| 2026-05-05 15:34 | 56.90293 | 9.99684 | 32953 ft | 452 kts | 187° |
| 2026-05-05 15:35 | 56.83996 | 9.99666 | 32937 ft | 451 kts | 186° |
| 2026-05-05 15:35 | 56.77727 | 9.99646 | 32952 ft | 451 kts | 186° |
| 2026-05-05 15:36 | 56.71486 | 9.99626 | 32938 ft | 451 kts | 186° |
| 2026-05-05 15:36 | 56.65207 | 9.99608 | 32942 ft | 452 kts | 186° |
| 2026-05-05 15:37 | 56.58923 | 9.99588 | 32942 ft | 451 kts | 186° |
| 2026-05-05 15:37 | 56.52646 | 9.99569 | 32937 ft | 451 kts | 186° |
| 2026-05-05 15:38 | 56.46368 | 9.99550 | 32943 ft | 451 kts | 186° |
| 2026-05-05 15:38 | 56.40086 | 9.99532 | 32928 ft | 451 kts | 186° |
| 2026-05-05 15:39 | 56.33798 | 9.99513 | 32939 ft | 451 kts | 186° |
| 2026-05-05 15:39 | 56.27550 | 9.99494 | 32932 ft | 451 kts | 186° |
| 2026-05-05 15:40 | 56.21268 | 9.99475 | 32930 ft | 451 kts | 186° |
| 2026-05-05 15:40 | 56.14987 | 9.99457 | 32906 ft | 451 kts | 186° |
| 2026-05-05 15:41 | 56.08701 | 9.99446 | 32935 ft | 452 kts | 185° |
| 2026-05-05 15:41 | 56.02426 | 9.99446 | 32940 ft | 452 kts | 185° |
| 2026-05-05 15:42 | 55.96133 | 9.99443 | 32934 ft | 452 kts | 185° |
| 2026-05-05 15:42 | 55.89840 | 9.99439 | 32920 ft | 452 kts | 185° |
| 2026-05-05 15:43 | 55.83582 | 9.99435 | 32941 ft | 453 kts | 185° |
| 2026-05-05 15:43 | 55.77288 | 9.99430 | 32941 ft | 452 kts | 185° |
| 2026-05-05 15:44 | 55.70989 | 9.99425 | 32934 ft | 452 kts | 185° |
| 2026-05-05 15:44 | 55.64691 | 9.99421 | 32936 ft | 453 kts | 185° |
| 2026-05-05 15:45 | 55.58390 | 9.99415 | 32938 ft | 453 kts | 185° |
| 2026-05-05 15:45 | 55.52091 | 9.99408 | 32937 ft | 453 kts | 185° |
| 2026-05-05 15:46 | 55.45795 | 9.99400 | 32929 ft | 453 kts | 185° |
| 2026-05-05 15:46 | 55.39484 | 9.99392 | 32933 ft | 453 kts | 185° |
| 2026-05-05 15:47 | 55.33179 | 9.99386 | 32917 ft | 453 kts | 184° |
| 2026-05-05 15:47 | 55.26878 | 9.99378 | 32926 ft | 453 kts | 184° |
| 2026-05-05 15:48 | 55.20615 | 9.99372 | 32931 ft | 453 kts | 184° |
| 2026-05-05 15:48 | 55.14311 | 9.99364 | 32948 ft | 453 kts | 184° |
| 2026-05-05 15:49 | 55.08003 | 9.99358 | 32929 ft | 452 kts | 184° |
| 2026-05-05 15:49 | 55.01714 | 9.99351 | 32939 ft | 451 kts | 184° |
| 2026-05-05 15:49 | 54.98605 | 9.99347 | 32391 ft | 444 kts | 184° |
| 2026-05-05 15:50 | 54.95516 | 9.99344 | 31455 ft | 443 kts | 184° |
| 2026-05-05 15:50 | 54.92466 | 9.99340 | 30547 ft | 444 kts | 184° |
| 2026-05-05 15:50 | 54.89395 | 9.98996 | 29807 ft | 442 kts | 194° |
| 2026-05-05 15:50 | 54.86373 | 9.97961 | 29136 ft | 444 kts | 194° |
| 2026-05-05 15:51 | 54.83330 | 9.96972 | 28531 ft | 445 kts | 195° |
| 2026-05-05 15:51 | 54.80281 | 9.95975 | 27872 ft | 446 kts | 195° |
| 2026-05-05 15:51 | 54.77235 | 9.94979 | 27221 ft | 448 kts | 195° |
| 2026-05-05 15:51 | 54.74161 | 9.93976 | 26623 ft | 450 kts | 195° |
| 2026-05-05 15:52 | 54.71079 | 9.92971 | 25984 ft | 451 kts | 195° |
| 2026-05-05 15:52 | 54.67991 | 9.91966 | 25343 ft | 450 kts | 195° |
| 2026-05-05 15:52 | 54.64921 | 9.90973 | 24672 ft | 447 kts | 195° |
| 2026-05-05 15:52 | 54.61883 | 9.89999 | 23955 ft | 441 kts | 195° |
| 2026-05-05 15:53 | 54.58898 | 9.89044 | 23313 ft | 430 kts | 195° |
| 2026-05-05 15:53 | 54.55982 | 9.88111 | 22653 ft | 424 kts | 195° |
| 2026-05-05 15:53 | 54.53086 | 9.87239 | 22016 ft | 423 kts | 191° |
| 2026-05-05 15:53 | 54.50172 | 9.87425 | 21312 ft | 430 kts | 174° |
| 2026-05-05 15:54 | 54.47326 | 9.89115 | 20783 ft | 438 kts | 159° |
| 2026-05-05 15:54 | 54.44567 | 9.91343 | 20228 ft | 436 kts | 160° |
| 2026-05-05 15:54 | 54.41825 | 9.93551 | 19623 ft | 434 kts | 159° |
| 2026-05-05 15:54 | 54.39103 | 9.95756 | 19025 ft | 432 kts | 159° |
| 2026-05-05 15:55 | 54.36400 | 9.97950 | 18457 ft | 429 kts | 159° |
| 2026-05-05 15:55 | 54.33706 | 10.00136 | 17804 ft | 427 kts | 159° |
| 2026-05-05 15:55 | 54.31044 | 10.02293 | 17215 ft | 422 kts | 159° |
| 2026-05-05 15:55 | 54.28406 | 10.04428 | 16664 ft | 417 kts | 159° |
| 2026-05-05 15:56 | 54.25794 | 10.06539 | 16118 ft | 413 kts | 159° |
| 2026-05-05 15:56 | 54.23207 | 10.08626 | 15582 ft | 409 kts | 158° |
| 2026-05-05 15:56 | 54.20647 | 10.10689 | 15051 ft | 405 kts | 158° |
| 2026-05-05 15:56 | 54.18118 | 10.12724 | 14531 ft | 400 kts | 158° |
| 2026-05-05 15:57 | 54.15611 | 10.14739 | 14012 ft | 397 kts | 158° |
| 2026-05-05 15:57 | 54.13125 | 10.16734 | 13459 ft | 393 kts | 158° |
| 2026-05-05 15:57 | 54.10660 | 10.18709 | 12899 ft | 389 kts | 158° |
| 2026-05-05 15:57 | 54.08226 | 10.20657 | 12401 ft | 386 kts | 158° |
| 2026-05-05 15:58 | 54.05805 | 10.22593 | 11890 ft | 383 kts | 157° |
| 2026-05-05 15:58 | 54.03401 | 10.24512 | 11392 ft | 380 kts | 157° |
| 2026-05-05 15:58 | 54.01019 | 10.26412 | 11085 ft | 378 kts | 157° |
| 2026-05-05 15:58 | 53.98636 | 10.28303 | 10894 ft | 375 kts | 158° |
| 2026-05-05 15:59 | 53.96197 | 10.29496 | 10410 ft | 367 kts | 173° |
| 2026-05-05 15:59 | 53.93664 | 10.30302 | 10391 ft | 368 kts | 171° |
| 2026-05-05 15:59 | 53.91144 | 10.31133 | 10390 ft | 370 kts | 171° |
| 2026-05-05 15:59 | 53.88645 | 10.31957 | 10381 ft | 371 kts | 171° |
| 2026-05-05 16:00 | 53.86112 | 10.32794 | 10262 ft | 370 kts | 171° |
| 2026-05-05 16:00 | 53.83597 | 10.33626 | 10116 ft | 369 kts | 171° |
| 2026-05-05 16:00 | 53.81081 | 10.34456 | 9968 ft | 368 kts | 171° |
| 2026-05-05 16:00 | 53.78562 | 10.35287 | 9805 ft | 368 kts | 171° |
| 2026-05-05 16:01 | 53.76055 | 10.36113 | 9654 ft | 367 kts | 171° |
| 2026-05-05 16:01 | 53.73543 | 10.36804 | 9482 ft | 364 kts | 180° |
| 2026-05-05 16:01 | 53.71090 | 10.36096 | 9287 ft | 357 kts | 205° |
| 2026-05-05 16:01 | 53.69138 | 10.33630 | 9155 ft | 352 kts | 232° |
| 2026-05-05 16:02 | 53.67655 | 10.30333 | 9069 ft | 353 kts | 232° |
| 2026-05-05 16:02 | 53.66116 | 10.27111 | 8906 ft | 353 kts | 232° |
| 2026-05-05 16:02 | 53.64567 | 10.23911 | 8757 ft | 352 kts | 231° |
| 2026-05-05 16:02 | 53.63012 | 10.20722 | 8613 ft | 351 kts | 231° |
| 2026-05-05 16:03 | 53.61461 | 10.17558 | 8468 ft | 351 kts | 231° |
| 2026-05-05 16:03 | 53.59905 | 10.14391 | 8322 ft | 350 kts | 231° |
| 2026-05-05 16:03 | 53.58349 | 10.11232 | 8229 ft | 350 kts | 231° |
| 2026-05-05 16:03 | 53.56809 | 10.08108 | 7784 ft | 347 kts | 231° |
| 2026-05-05 16:04 | 53.55788 | 10.06040 | 7397 ft | 347 kts | 231° |
| 2026-05-05 16:04 | 53.54256 | 10.02941 | 7024 ft | 341 kts | 231° |
| 2026-05-05 16:04 | 53.52759 | 9.99914 | 6731 ft | 331 kts | 231° |
| 2026-05-05 16:04 | 53.50861 | 9.96081 | 6365 ft | 311 kts | 231° |
| 2026-05-05 16:05 | 53.49951 | 9.94248 | 6383 ft | 292 kts | 231° |
| 2026-05-05 16:05 | 53.48705 | 9.91741 | 6392 ft | 268 kts | 231° |
| 2026-05-05 16:05 | 53.47556 | 9.89429 | 6451 ft | 250 kts | 231° |
| 2026-05-05 16:05 | 53.46438 | 9.87177 | 6482 ft | 256 kts | 231° |
| 2026-05-05 16:06 | 53.45293 | 9.84877 | 6478 ft | 259 kts | 231° |
| 2026-05-05 16:06 | 53.44152 | 9.82588 | 6477 ft | 246 kts | 231° |
| 2026-05-05 16:06 | 53.43080 | 9.80439 | 6447 ft | 237 kts | 231° |
| 2026-05-05 16:06 | 53.42028 | 9.78329 | 6443 ft | 250 kts | 231° |
| 2026-05-05 16:07 | 53.40897 | 9.76063 | 6351 ft | 267 kts | 230° |
| 2026-05-05 16:07 | 53.39714 | 9.73698 | 6144 ft | 262 kts | 230° |
| 2026-05-05 16:07 | 53.38798 | 9.71165 | 5968 ft | 248 kts | 255° |
| 2026-05-05 16:07 | 53.38795 | 9.68398 | 5879 ft | 239 kts | 285° |
| 2026-05-05 16:08 | 53.39599 | 9.65893 | 5651 ft | 250 kts | 310° |
| 2026-05-05 16:08 | 53.41027 | 9.64206 | 5249 ft | 255 kts | 339° |
| 2026-05-05 16:08 | 53.42753 | 9.63766 | 4889 ft | 249 kts | 1° |
| 2026-05-05 16:08 | 53.44427 | 9.64297 | 4728 ft | 244 kts | 20° |
| 2026-05-05 16:09 | 53.45891 | 9.65714 | 4602 ft | 244 kts | 37° |
| 2026-05-05 16:09 | 53.47220 | 9.67476 | 4462 ft | 243 kts | 41° |
| 2026-05-05 16:09 | 53.48415 | 9.69461 | 4176 ft | 239 kts | 47° |
| 2026-05-05 16:09 | 53.49491 | 9.71515 | 3888 ft | 230 kts | 49° |
| 2026-05-05 16:10 | 53.50488 | 9.73511 | 3590 ft | 222 kts | 50° |
| 2026-05-05 16:10 | 53.51467 | 9.75482 | 3307 ft | 209 kts | 49° |
| 2026-05-05 16:10 | 53.52332 | 9.77225 | 3058 ft | 179 kts | 49° |
| 2026-05-05 16:10 | 53.53067 | 9.78706 | 2859 ft | 161 kts | 50° |
| 2026-05-05 16:11 | 53.53774 | 9.80129 | 2636 ft | 155 kts | 50° |
| 2026-05-05 16:11 | 53.55715 | 9.84043 | 2026 ft | 136 kts | 49° |
| 2026-05-05 16:12 | 53.56320 | 9.85262 | 1842 ft | 136 kts | 50° |
| 2026-05-05 16:12 | 53.57527 | 9.87696 | 1467 ft | 135 kts | 50° |
| 2026-05-05 16:13 | 53.59331 | 9.91343 | 907 ft | 135 kts | 50° |
| 2026-05-05 16:13 | 53.59940 | 9.92568 | 698 ft | 137 kts | 50° |
| 2026-05-05 16:13 | 53.60546 | 9.93795 | 516 ft | 139 kts | 50° |
| 2026-05-05 16:14 | 53.61812 | 9.96355 | 122 ft | 137 kts | 50° |
| 2026-05-05 16:14 | 53.62724 | 9.98189 | 47 ft | 51 kts | 50° |
| 2026-05-05 16:15 | 53.63088 | 9.99206 | 47 ft | 35 kts | 94° |
| 2026-05-05 16:15 | 53.63166 | 9.99558 | 47 ft | 25 kts | 51° |
| 2026-05-05 16:16 | 53.63223 | 9.99671 | 47 ft | 0 kts | 47° |
| 2026-05-05 16:16 | 53.63195 | 9.99782 | 47 ft | 29 kts | 144° |
| 2026-05-05 16:17 | 53.62798 | 10.00112 | 49 ft | 10 kts | 152° |
| 2026-05-05 16:17 | 53.62727 | 10.00176 | 48 ft | 7 kts | 151° |
| 2026-05-05 16:18 | 53.62739 | 10.00309 | 49 ft | 0 kts | 62° |